Aviation Digital Data Service (ADDS)

Output produced by METARs form (1219 UTC 19 January 2019)
found at http://www.aviationweather.gov/metar/data/
 
Forecast for: VEBS (BHUBANESWAR , IN)
Text: TAF VEBS 191100Z 1912/1921 29003KT 2500 HZ NSC
Forecast period: 1200 to 1600 UTC 19 January 2019
Forecast type: FROM: standard forecast or significant change
Winds: from the WNW (290 degrees) at 3 MPH (3 knots; 1.5 m/s)
Visibility: 1.55 miles (2.49 km)
Ceiling: unknown
Clouds: missing
Weather: HZ  (haze)
Text: BECMG 1916/1918 1500 BR
Forecast period: 1600 to 2100 UTC 19 January 2019
Forecast type: BECOMING: Conditions expected to become as follows by 1800 UTC 19 January 2019
Winds: from the WNW (290 degrees) at 3 MPH (3 knots; 1.5 m/s)
Visibility: 0.93 miles (1.50 km)
Ceiling: unknown
Clouds: missing
Weather: BR  (mist)